sensor_id;sensor_type;location;lat;lon;timestamp;pressure;altitude;pressure_sealevel;temperature;humidity
63663;BME280;49815;51.618;0.336;2022-12-18T00:00:27;101558.30;;;-3.27;53.08
63663;BME280;49815;51.618;0.336;2022-12-18T00:02:50;101560.13;;;-2.00;52.70
63663;BME280;49815;51.618;0.336;2022-12-18T00:05:16;101557.52;;;-1.91;52.76
63663;BME280;49815;51.618;0.336;2022-12-18T00:07:40;101554.49;;;-1.88;52.70
63663;BME280;49815;51.618;0.336;2022-12-18T00:10:09;101552.21;;;-1.89;52.56
63663;BME280;49815;51.618;0.336;2022-12-18T00:12:32;101551.29;;;-2.58;53.49
63663;BME280;49815;51.618;0.336;2022-12-18T00:14:58;101549.81;;;-1.90;52.98
63663;BME280;49815;51.618;0.336;2022-12-18T00:17:24;101546.49;;;-1.98;52.97
63663;BME280;49815;51.618;0.336;2022-12-18T00:19:49;101543.85;;;-1.89;52.69
63663;BME280;49815;51.618;0.336;2022-12-18T00:22:18;101542.71;;;-1.91;52.59
63663;BME280;49815;51.618;0.336;2022-12-18T00:24:40;101538.73;;;-1.61;52.41
63663;BME280;49815;51.618;0.336;2022-12-18T00:27:05;101537.91;;;-1.61;51.90
63663;BME280;49815;51.618;0.336;2022-12-18T00:29:31;101539.72;;;-1.61;52.19
63663;BME280;49815;51.618;0.336;2022-12-18T00:31:58;101533.89;;;-1.69;51.19
63663;BME280;49815;51.618;0.336;2022-12-18T00:34:22;101533.68;;;-1.68;51.18
63663;BME280;49815;51.618;0.336;2022-12-18T00:36:47;101543.65;;;-1.98;50.97
63663;BME280;49815;51.618;0.336;2022-12-18T00:39:12;101542.13;;;-2.54;50.79
63663;BME280;49815;51.618;0.336;2022-12-18T00:41:36;101552.75;;;-2.21;51.24
63663;BME280;49815;51.618;0.336;2022-12-18T00:44:03;101566.73;;;-2.46;51.04
63663;BME280;49815;51.618;0.336;2022-12-18T00:46:28;101570.60;;;-2.15;50.72
63663;BME280;49815;51.618;0.336;2022-12-18T00:48:52;101567.20;;;-2.37;50.29
63663;BME280;49815;51.618;0.336;2022-12-18T00:51:18;101549.45;;;-2.28;50.21
63663;BME280;49815;51.618;0.336;2022-12-18T00:53:44;101539.42;;;-2.19;50.09
63663;BME280;49815;51.618;0.336;2022-12-18T00:56:11;101536.25;;;-2.72;50.02
63663;BME280;49815;51.618;0.336;2022-12-18T00:58:35;101535.42;;;-2.55;49.97
63663;BME280;49815;51.618;0.336;2022-12-18T01:01:02;101535.40;;;-2.54;49.86
63663;BME280;49815;51.618;0.336;2022-12-18T01:03:26;101531.81;;;-2.40;49.83
63663;BME280;49815;51.618;0.336;2022-12-18T01:05:52;101533.42;;;-2.58;49.91
63663;BME280;49815;51.618;0.336;2022-12-18T01:08:17;101534.72;;;-2.68;49.91
63663;BME280;49815;51.618;0.336;2022-12-18T01:10:42;101527.38;;;-2.57;49.53
63663;BME280;49815;51.618;0.336;2022-12-18T01:13:07;101526.44;;;-2.84;49.72
63663;BME280;49815;51.618;0.336;2022-12-18T01:15:32;101523.94;;;-2.44;50.06
63663;BME280;49815;51.618;0.336;2022-12-18T01:17:58;101518.42;;;-2.83;49.59
63663;BME280;49815;51.618;0.336;2022-12-18T01:20:24;101510.59;;;-2.83;50.47
63663;BME280;49815;51.618;0.336;2022-12-18T01:22:51;101508.27;;;-2.44;50.47
63663;BME280;49815;51.618;0.336;2022-12-18T01:25:15;101505.84;;;-2.97;49.78
63663;BME280;49815;51.618;0.336;2022-12-18T01:27:40;101501.58;;;-2.78;50.28
63663;BME280;49815;51.618;0.336;2022-12-18T01:30:10;101503.22;;;-2.99;50.34
63663;BME280;49815;51.618;0.336;2022-12-18T01:32:32;101500.70;;;-2.75;50.03
63663;BME280;49815;51.618;0.336;2022-12-18T01:34:57;101500.58;;;-3.12;49.31
63663;BME280;49815;51.618;0.336;2022-12-18T01:37:22;101492.28;;;-2.98;49.80
63663;BME280;49815;51.618;0.336;2022-12-18T01:39:47;101489.13;;;-2.82;50.49
63663;BME280;49815;51.618;0.336;2022-12-18T01:42:15;101482.54;;;-2.69;50.27
63663;BME280;49815;51.618;0.336;2022-12-18T01:44:53;101485.42;;;-3.10;50.86
63663;BME280;49815;51.618;0.336;2022-12-18T01:47:04;101490.31;;;-2.96;50.60
63663;BME280;49815;51.618;0.336;2022-12-18T01:49:29;101490.94;;;-3.16;50.55
63663;BME280;49815;51.618;0.336;2022-12-18T01:51:54;101488.94;;;-2.88;50.88
63663;BME280;49815;51.618;0.336;2022-12-18T01:54:19;101490.01;;;-2.83;50.88
63663;BME280;49815;51.618;0.336;2022-12-18T01:56:44;101487.19;;;-3.12;51.43
63663;BME280;49815;51.618;0.336;2022-12-18T01:59:10;101480.41;;;-3.12;52.19
63663;BME280;49815;51.618;0.336;2022-12-18T02:01:37;101483.87;;;-3.03;52.34
63663;BME280;49815;51.618;0.336;2022-12-18T02:04:19;101481.27;;;-3.22;52.34
63663;BME280;49815;51.618;0.336;2022-12-18T02:06:32;101481.71;;;-3.29;52.89
63663;BME280;49815;51.618;0.336;2022-12-18T02:09:01;101482.56;;;-3.28;53.65
63663;BME280;49815;51.618;0.336;2022-12-18T02:11:24;101479.22;;;-3.20;53.66
63663;BME280;49815;51.618;0.336;2022-12-18T02:13:50;101478.61;;;-2.78;53.31
63663;BME280;49815;51.618;0.336;2022-12-18T02:16:15;101481.67;;;-2.67;53.21
63663;BME280;49815;51.618;0.336;2022-12-18T02:18:38;101484.99;;;-2.70;52.98
63663;BME280;49815;51.618;0.336;2022-12-18T02:21:04;101485.79;;;-2.44;52.62
63663;BME280;49815;51.618;0.336;2022-12-18T02:26:06;101493.44;;;-2.33;52.18
63663;BME280;49815;51.618;0.336;2022-12-18T02:28:17;101497.05;;;-2.41;51.88
63663;BME280;49815;51.618;0.336;2022-12-18T02:30:42;101501.22;;;-2.56;51.54
63663;BME280;49815;51.618;0.336;2022-12-18T02:33:08;101501.59;;;-2.33;51.41
63663;BME280;49815;51.618;0.336;2022-12-18T02:35:33;101505.17;;;-2.37;50.59
63663;BME280;49815;51.618;0.336;2022-12-18T02:37:58;101513.44;;;-2.55;50.35
63663;BME280;49815;51.618;0.336;2022-12-18T02:40:26;101516.29;;;-2.65;50.21
63663;BME280;49815;51.618;0.336;2022-12-18T02:42:47;101519.38;;;-2.84;50.12
63663;BME280;49815;51.618;0.336;2022-12-18T02:45:13;101520.68;;;-2.85;50.07
63663;BME280;49815;51.618;0.336;2022-12-18T02:47:42;101519.05;;;-2.68;50.03
63663;BME280;49815;51.618;0.336;2022-12-18T02:50:10;101522.04;;;-3.04;51.17
63663;BME280;49815;51.618;0.336;2022-12-18T02:52:34;101522.79;;;-3.16;52.00
63663;BME280;49815;51.618;0.336;2022-12-18T02:55:03;101521.31;;;-3.20;52.33
63663;BME280;49815;51.618;0.336;2022-12-18T02:57:27;101522.19;;;-3.02;52.17
63663;BME280;49815;51.618;0.336;2022-12-18T02:59:55;101523.45;;;-2.87;52.19
63663;BME280;49815;51.618;0.336;2022-12-18T03:02:19;101524.88;;;-2.99;52.60
63663;BME280;49815;51.618;0.336;2022-12-18T03:04:42;101525.46;;;-2.72;52.21
63663;BME280;49815;51.618;0.336;2022-12-18T03:07:08;101527.02;;;-2.59;52.06
63663;BME280;49815;51.618;0.336;2022-12-18T03:09:33;101530.93;;;-2.63;51.89
63663;BME280;49815;51.618;0.336;2022-12-18T03:11:58;101535.19;;;-2.78;51.52
63663;BME280;49815;51.618;0.336;2022-12-18T03:14:20;101535.50;;;-2.59;51.02
63663;BME280;49815;51.618;0.336;2022-12-18T03:16:45;101531.30;;;-2.90;50.76
63663;BME280;49815;51.618;0.336;2022-12-18T03:19:14;101531.73;;;-2.44;50.90
63663;BME280;49815;51.618;0.336;2022-12-18T03:21:41;101529.05;;;-2.47;50.83
63663;BME280;49815;51.618;0.336;2022-12-18T03:24:01;101528.86;;;-2.46;50.55
63663;BME280;49815;51.618;0.336;2022-12-18T03:26:27;101520.16;;;-2.77;50.46
63663;BME280;49815;51.618;0.336;2022-12-18T03:28:56;101508.65;;;-2.64;50.13
63663;BME280;49815;51.618;0.336;2022-12-18T03:31:18;101502.60;;;-2.75;50.80
63663;BME280;49815;51.618;0.336;2022-12-18T03:33:45;101495.31;;;-2.97;51.43
63663;BME280;49815;51.618;0.336;2022-12-18T03:36:09;101493.08;;;-3.14;52.03
63663;BME280;49815;51.618;0.336;2022-12-18T03:38:33;101492.27;;;-3.18;52.99
63663;BME280;49815;51.618;0.336;2022-12-18T03:41:01;101487.62;;;-2.77;52.61
63663;BME280;49815;51.618;0.336;2022-12-18T03:43:33;101493.40;;;-2.79;53.12
63663;BME280;49815;51.618;0.336;2022-12-18T03:45:54;101499.12;;;-2.89;53.41
63663;BME280;49815;51.618;0.336;2022-12-18T03:48:18;101499.37;;;-2.71;53.50
63663;BME280;49815;51.618;0.336;2022-12-18T03:50:46;101494.06;;;-2.72;52.91
63663;BME280;49815;51.618;0.336;2022-12-18T03:53:16;101479.24;;;-2.21;52.51
63663;BME280;49815;51.618;0.336;2022-12-18T03:55:33;101472.32;;;-2.53;52.85
63663;BME280;49815;51.618;0.336;2022-12-18T03:57:57;101467.09;;;-2.41;53.40
63663;BME280;49815;51.618;0.336;2022-12-18T04:00:22;101457.08;;;-2.53;53.79
63663;BME280;49815;51.618;0.336;2022-12-18T04:02:50;101457.27;;;-2.43;53.63
63663;BME280;49815;51.618;0.336;2022-12-18T04:05:13;101456.73;;;-2.59;53.94
63663;BME280;49815;51.618;0.336;2022-12-18T04:07:39;101455.25;;;-2.40;53.59
63663;BME280;49815;51.618;0.336;2022-12-18T04:10:09;101458.68;;;-2.34;53.27
63663;BME280;49815;51.618;0.336;2022-12-18T04:12:30;101453.46;;;-2.55;54.25
63663;BME280;49815;51.618;0.336;2022-12-18T04:14:56;101459.86;;;-2.75;54.14
63663;BME280;49815;51.618;0.336;2022-12-18T04:17:23;101461.18;;;-2.94;54.86
63663;BME280;49815;51.618;0.336;2022-12-18T04:22:13;101454.95;;;-3.24;52.35
63663;BME280;49815;51.618;0.336;2022-12-18T04:24:37;101446.80;;;-1.73;51.90
63663;BME280;49815;51.618;0.336;2022-12-18T04:27:03;101445.37;;;-1.76;52.47
63663;BME280;49815;51.618;0.336;2022-12-18T04:29:29;101444.86;;;-1.91;52.50
63663;BME280;49815;51.618;0.336;2022-12-18T04:31:53;101443.71;;;-2.09;52.71
63663;BME280;49815;51.618;0.336;2022-12-18T04:34:18;101440.74;;;-1.90;52.79
63663;BME280;49815;51.618;0.336;2022-12-18T04:36:44;101438.37;;;-2.06;52.56
63663;BME280;49815;51.618;0.336;2022-12-18T04:39:09;101433.90;;;-1.79;52.56
63663;BME280;49815;51.618;0.336;2022-12-18T04:41:34;101430.74;;;-1.95;52.53
63663;BME280;49815;51.618;0.336;2022-12-18T04:44:00;101426.12;;;-2.00;52.91
63663;BME280;49815;51.618;0.336;2022-12-18T04:46:25;101427.92;;;-2.31;52.83
63663;BME280;49815;51.618;0.336;2022-12-18T04:48:51;101433.94;;;-2.20;54.03
63663;BME280;49815;51.618;0.336;2022-12-18T04:51:17;101431.50;;;-2.35;53.86
63663;BME280;49815;51.618;0.336;2022-12-18T04:53:42;101426.90;;;-2.07;54.00
63663;BME280;49815;51.618;0.336;2022-12-18T04:56:10;101419.16;;;-2.50;54.48
63663;BME280;49815;51.618;0.336;2022-12-18T04:58:33;101409.84;;;-2.23;54.22
63663;BME280;49815;51.618;0.336;2022-12-18T05:00:58;101407.10;;;-2.13;54.56
63663;BME280;49815;51.618;0.336;2022-12-18T05:03:24;101401.13;;;-2.26;54.07
63663;BME280;49815;51.618;0.336;2022-12-18T05:05:51;101389.50;;;-2.05;54.72
63663;BME280;49815;51.618;0.336;2022-12-18T05:08:14;101390.09;;;-2.20;54.26
63663;BME280;49815;51.618;0.336;2022-12-18T05:10:40;101391.65;;;-2.12;54.43
63663;BME280;49815;51.618;0.336;2022-12-18T05:13:05;101392.95;;;-1.82;53.62
63663;BME280;49815;51.618;0.336;2022-12-18T05:15:30;101383.12;;;-1.89;54.29
63663;BME280;49815;51.618;0.336;2022-12-18T05:17:56;101382.20;;;-2.38;54.70
63663;BME280;49815;51.618;0.336;2022-12-18T05:20:20;101374.33;;;-1.71;54.40
63663;BME280;49815;51.618;0.336;2022-12-18T05:22:45;101369.74;;;-1.97;53.98
63663;BME280;49815;51.618;0.336;2022-12-18T05:25:11;101364.07;;;-2.24;54.77
63663;BME280;49815;51.618;0.336;2022-12-18T05:27:38;101361.49;;;-2.19;55.61
63663;BME280;49815;51.618;0.336;2022-12-18T05:30:02;101360.88;;;-1.84;55.26
63663;BME280;49815;51.618;0.336;2022-12-18T05:32:27;101355.92;;;-2.00;55.14
63663;BME280;49815;51.618;0.336;2022-12-18T05:34:53;101344.85;;;-2.18;55.27
63663;BME280;49815;51.618;0.336;2022-12-18T05:37:18;101339.87;;;-1.68;54.82
63663;BME280;49815;51.618;0.336;2022-12-18T05:39:44;101335.50;;;-1.84;54.99
63663;BME280;49815;51.618;0.336;2022-12-18T05:42:10;101329.92;;;-1.69;54.28
63663;BME280;49815;51.618;0.336;2022-12-18T05:44:34;101330.16;;;-1.77;55.68
63663;BME280;49815;51.618;0.336;2022-12-18T05:46:59;101324.11;;;-1.68;55.15
63663;BME280;49815;51.618;0.336;2022-12-18T05:49:26;101320.24;;;-1.80;54.91
63663;BME280;49815;51.618;0.336;2022-12-18T05:51:51;101317.10;;;-1.29;54.82
63663;BME280;49815;51.618;0.336;2022-12-18T05:54:16;101313.79;;;-1.23;53.93
63663;BME280;49815;51.618;0.336;2022-12-18T05:56:41;101316.91;;;-2.23;55.83
63663;BME280;49815;51.618;0.336;2022-12-18T05:59:08;101311.51;;;-2.01;56.13
63663;BME280;49815;51.618;0.336;2022-12-18T06:01:31;101301.57;;;-1.45;54.86
63663;BME280;49815;51.618;0.336;2022-12-18T06:03:58;101299.27;;;-1.37;54.79
63663;BME280;49815;51.618;0.336;2022-12-18T06:06:24;101305.21;;;-1.65;55.47
63663;BME280;49815;51.618;0.336;2022-12-18T06:08:49;101312.54;;;-1.71;55.62
63663;BME280;49815;51.618;0.336;2022-12-18T06:11:16;101308.09;;;-1.32;54.81
63663;BME280;49815;51.618;0.336;2022-12-18T06:13:39;101298.39;;;-1.25;54.94
63663;BME280;49815;51.618;0.336;2022-12-18T06:16:06;101294.58;;;-1.57;55.37
63663;BME280;49815;51.618;0.336;2022-12-18T06:18:32;101295.55;;;-1.40;55.66
63663;BME280;49815;51.618;0.336;2022-12-18T06:20:58;101284.48;;;-1.59;56.15
63663;BME280;49815;51.618;0.336;2022-12-18T06:23:22;101277.82;;;-1.63;56.41
63663;BME280;49815;51.618;0.336;2022-12-18T06:25:47;101268.21;;;-1.47;57.00
63663;BME280;49815;51.618;0.336;2022-12-18T06:28:14;101264.37;;;-2.09;57.79
63663;BME280;49815;51.618;0.336;2022-12-18T06:30:39;101265.37;;;-1.74;56.65
63663;BME280;49815;51.618;0.336;2022-12-18T06:33:04;101260.88;;;-0.97;56.31
63663;BME280;49815;51.618;0.336;2022-12-18T06:35:30;101261.42;;;-1.52;56.12
63663;BME280;49815;51.618;0.336;2022-12-18T06:37:56;101264.88;;;-1.46;55.63
63663;BME280;49815;51.618;0.336;2022-12-18T06:40:21;101262.40;;;-1.20;55.63
63663;BME280;49815;51.618;0.336;2022-12-18T06:42:46;101252.88;;;-0.99;55.25
63663;BME280;49815;51.618;0.336;2022-12-18T06:45:10;101245.54;;;-1.09;55.47
63663;BME280;49815;51.618;0.336;2022-12-18T06:47:38;101240.76;;;-1.07;55.30
63663;BME280;49815;51.618;0.336;2022-12-18T06:50:02;101237.87;;;-1.09;55.78
63663;BME280;49815;51.618;0.336;2022-12-18T06:52:27;101240.43;;;-1.28;55.59
63663;BME280;49815;51.618;0.336;2022-12-18T06:54:53;101231.18;;;-1.08;55.39
63663;BME280;49815;51.618;0.336;2022-12-18T06:57:18;101233.09;;;-0.48;54.71
63663;BME280;49815;51.618;0.336;2022-12-18T06:59:44;101234.06;;;-1.01;55.15
63663;BME280;49815;51.618;0.336;2022-12-18T07:02:12;101228.87;;;-1.11;55.20
63663;BME280;49815;51.618;0.336;2022-12-18T07:04:34;101227.23;;;-0.71;54.68
63663;BME280;49815;51.618;0.336;2022-12-18T07:07:00;101232.57;;;-1.00;55.14
63663;BME280;49815;51.618;0.336;2022-12-18T07:09:25;101234.44;;;-1.01;55.13
63663;BME280;49815;51.618;0.336;2022-12-18T07:11:53;101233.55;;;-1.06;54.92
63663;BME280;49815;51.618;0.336;2022-12-18T07:14:16;101231.87;;;-1.17;54.52
63663;BME280;49815;51.618;0.336;2022-12-18T07:16:42;101235.13;;;-1.07;54.29
63663;BME280;49815;51.618;0.336;2022-12-18T07:19:09;101229.89;;;-0.86;54.53
63663;BME280;49815;51.618;0.336;2022-12-18T07:21:34;101223.29;;;-0.59;54.57
63663;BME280;49815;51.618;0.336;2022-12-18T07:23:59;101215.71;;;-0.18;54.10
63663;BME280;49815;51.618;0.336;2022-12-18T07:26:25;101216.47;;;-1.44;54.92
63663;BME280;49815;51.618;0.336;2022-12-18T07:28:56;101215.52;;;-0.80;54.24
63663;BME280;49815;51.618;0.336;2022-12-18T07:31:19;101211.27;;;-0.89;55.16
63663;BME280;49815;51.618;0.336;2022-12-18T07:33:41;101208.85;;;-0.75;54.62
63663;BME280;49815;51.618;0.336;2022-12-18T07:36:08;101205.61;;;-0.89;55.05
63663;BME280;49815;51.618;0.336;2022-12-18T07:38:33;101205.73;;;-0.30;53.39
63663;BME280;49815;51.618;0.336;2022-12-18T07:41:02;101207.58;;;-0.77;53.89
63663;BME280;49815;51.618;0.336;2022-12-18T07:43:23;101211.30;;;-1.01;54.17
63663;BME280;49815;51.618;0.336;2022-12-18T07:45:50;101209.47;;;-0.37;53.88
63663;BME280;49815;51.618;0.336;2022-12-18T07:48:15;101203.68;;;-0.97;54.11
63663;BME280;49815;51.618;0.336;2022-12-18T07:50:40;101196.84;;;-0.97;54.51
63663;BME280;49815;51.618;0.336;2022-12-18T07:53:05;101198.11;;;-1.04;54.51
63663;BME280;49815;51.618;0.336;2022-12-18T07:55:30;101193.65;;;-0.52;54.37
63663;BME280;49815;51.618;0.336;2022-12-18T07:57:57;101187.71;;;-1.13;55.62
63663;BME280;49815;51.618;0.336;2022-12-18T08:00:23;101188.91;;;-0.57;55.31
63663;BME280;49815;51.618;0.336;2022-12-18T08:02:46;101184.37;;;-0.80;54.81
63663;BME280;49815;51.618;0.336;2022-12-18T08:05:12;101176.10;;;-0.52;54.63
63663;BME280;49815;51.618;0.336;2022-12-18T08:07:38;101174.48;;;-0.94;55.49
63663;BME280;49815;51.618;0.336;2022-12-18T08:10:03;101177.46;;;-1.19;55.86
63663;BME280;49815;51.618;0.336;2022-12-18T08:12:28;101172.93;;;-0.91;56.30
63663;BME280;49815;51.618;0.336;2022-12-18T08:14:53;101165.02;;;-1.55;55.76
63663;BME280;49815;51.618;0.336;2022-12-18T08:17:20;101158.40;;;-1.06;55.69
63663;BME280;49815;51.618;0.336;2022-12-18T08:19:43;101160.51;;;-0.47;54.46
63663;BME280;49815;51.618;0.336;2022-12-18T08:22:09;101164.50;;;-1.25;54.97
63663;BME280;49815;51.618;0.336;2022-12-18T08:24:35;101165.51;;;-0.30;54.38
63663;BME280;49815;51.618;0.336;2022-12-18T08:26:59;101169.39;;;-0.06;53.69
63663;BME280;49815;51.618;0.336;2022-12-18T08:29:26;101170.46;;;-0.07;53.23
63663;BME280;49815;51.618;0.336;2022-12-18T08:31:52;101171.83;;;-0.39;54.14
63663;BME280;49815;51.618;0.336;2022-12-18T08:34:16;101162.01;;;-0.46;54.00
63663;BME280;49815;51.618;0.336;2022-12-18T08:36:41;101157.74;;;-0.74;53.87
63663;BME280;49815;51.618;0.336;2022-12-18T08:39:08;101156.09;;;-1.16;55.18
63663;BME280;49815;51.618;0.336;2022-12-18T08:41:32;101150.26;;;-0.70;54.96
63663;BME280;49815;51.618;0.336;2022-12-18T08:43:58;101149.64;;;-0.47;54.71
63663;BME280;49815;51.618;0.336;2022-12-18T08:46:25;101152.82;;;-0.53;54.10
63663;BME280;49815;51.618;0.336;2022-12-18T08:48:51;101154.33;;;-0.32;53.90
63663;BME280;49815;51.618;0.336;2022-12-18T08:51:18;101158.31;;;-1.06;54.65
63663;BME280;49815;51.618;0.336;2022-12-18T08:53:41;101166.11;;;-0.73;54.65
63663;BME280;49815;51.618;0.336;2022-12-18T08:56:08;101165.83;;;-0.28;54.34
63663;BME280;49815;51.618;0.336;2022-12-18T08:58:32;101167.75;;;-0.47;54.26
63663;BME280;49815;51.618;0.336;2022-12-18T09:01:02;101157.99;;;-0.70;53.88
63663;BME280;49815;51.618;0.336;2022-12-18T09:03:23;101158.55;;;-0.14;53.48
63663;BME280;49815;51.618;0.336;2022-12-18T09:05:48;101153.02;;;-0.72;54.61
63663;BME280;49815;51.618;0.336;2022-12-18T09:08:13;101150.38;;;-0.26;53.86
63663;BME280;49815;51.618;0.336;2022-12-18T09:10:42;101148.43;;;-0.58;53.98
63663;BME280;49815;51.618;0.336;2022-12-18T09:13:04;101144.55;;;-0.10;53.39
63663;BME280;49815;51.618;0.336;2022-12-18T09:15:31;101144.32;;;0.16;52.67
63663;BME280;49815;51.618;0.336;2022-12-18T09:17:56;101145.75;;;-0.06;52.43
63663;BME280;49815;51.618;0.336;2022-12-18T09:20:21;101133.90;;;-0.30;52.77
63663;BME280;49815;51.618;0.336;2022-12-18T09:22:47;101145.39;;;-0.53;53.69
63663;BME280;49815;51.618;0.336;2022-12-18T09:25:12;101145.20;;;0.03;52.55
63663;BME280;49815;51.618;0.336;2022-12-18T09:27:38;101155.37;;;-0.04;52.95
63663;BME280;49815;51.618;0.336;2022-12-18T09:30:05;101159.22;;;0.53;52.20
63663;BME280;49815;51.618;0.336;2022-12-18T09:32:29;101165.20;;;-0.24;53.39
63663;BME280;49815;51.618;0.336;2022-12-18T09:34:54;101152.89;;;0.13;53.04
63663;BME280;49815;51.618;0.336;2022-12-18T09:37:21;101155.38;;;0.42;52.50
63663;BME280;49815;51.618;0.336;2022-12-18T09:39:46;101146.66;;;0.38;51.91
63663;BME280;49815;51.618;0.336;2022-12-18T09:42:17;101158.25;;;0.71;51.05
63663;BME280;49815;51.618;0.336;2022-12-18T09:44:40;101155.27;;;0.66;51.36
63663;BME280;49815;51.618;0.336;2022-12-18T09:47:09;101164.47;;;0.91;50.93
63663;BME280;49815;51.618;0.336;2022-12-18T09:49:30;101170.75;;;0.77;51.07
63663;BME280;49815;51.618;0.336;2022-12-18T09:51:56;101159.63;;;0.65;51.33
63663;BME280;49815;51.618;0.336;2022-12-18T09:54:22;101148.37;;;0.82;51.59
63663;BME280;49815;51.618;0.336;2022-12-18T09:56:44;101158.41;;;0.19;52.52
63663;BME280;49815;51.618;0.336;2022-12-18T09:59:18;101163.90;;;0.61;51.54
63663;BME280;49815;51.618;0.336;2022-12-18T10:01:34;101160.63;;;1.05;51.07
63663;BME280;49815;51.618;0.336;2022-12-18T10:04:01;101157.96;;;1.14;50.99
63663;BME280;49815;51.618;0.336;2022-12-18T10:06:32;101145.40;;;1.25;50.66
63663;BME280;49815;51.618;0.336;2022-12-18T10:08:55;101153.01;;;1.19;50.72
63663;BME280;49815;51.618;0.336;2022-12-18T10:11:27;101139.78;;;1.55;50.11
63663;BME280;49815;51.618;0.336;2022-12-18T10:13:45;101160.70;;;1.77;49.56
63663;BME280;49815;51.618;0.336;2022-12-18T10:16:14;101153.64;;;1.41;50.01
63663;BME280;49815;51.618;0.336;2022-12-18T10:18:45;101135.43;;;1.37;50.43
63663;BME280;49815;51.618;0.336;2022-12-18T10:21:03;101139.62;;;1.58;50.49
63663;BME280;49815;51.618;0.336;2022-12-18T10:23:28;101149.58;;;0.69;51.39
63663;BME280;49815;51.618;0.336;2022-12-18T10:25:55;101157.17;;;1.54;50.64
63663;BME280;49815;51.618;0.336;2022-12-18T10:28:16;101161.03;;;1.22;50.67
63663;BME280;49815;51.618;0.336;2022-12-18T10:30:41;101152.13;;;1.16;50.16
63663;BME280;49815;51.618;0.336;2022-12-18T10:33:05;101149.58;;;1.72;49.72
63663;BME280;49815;51.618;0.336;2022-12-18T10:35:31;101146.11;;;1.77;49.28
63663;BME280;49815;51.618;0.336;2022-12-18T10:38:06;101144.95;;;1.80;48.94
63663;BME280;49815;51.618;0.336;2022-12-18T10:40:23;101151.17;;;1.90;49.09
63663;BME280;49815;51.618;0.336;2022-12-18T10:42:48;101145.31;;;2.07;49.14
63663;BME280;49815;51.618;0.336;2022-12-18T10:45:14;101143.56;;;1.96;48.74
63663;BME280;49815;51.618;0.336;2022-12-18T10:47:45;101143.41;;;1.89;48.41
63663;BME280;49815;51.618;0.336;2022-12-18T10:50:04;101131.14;;;1.56;49.20
63663;BME280;49815;51.618;0.336;2022-12-18T10:52:28;101130.71;;;1.60;49.30
63663;BME280;49815;51.618;0.336;2022-12-18T10:54:56;101119.29;;;1.76;48.72
63663;BME280;49815;51.618;0.336;2022-12-18T10:57:30;101118.16;;;2.08;48.88
63663;BME280;49815;51.618;0.336;2022-12-18T10:59:55;101117.27;;;2.00;48.68
63663;BME280;49815;51.618;0.336;2022-12-18T11:02:25;101115.87;;;1.35;49.69
63663;BME280;49815;51.618;0.336;2022-12-18T11:04:49;101109.56;;;2.42;48.97
63663;BME280;49815;51.618;0.336;2022-12-18T11:07:04;101094.25;;;2.15;48.57
63663;BME280;49815;51.618;0.336;2022-12-18T11:09:28;101088.62;;;2.18;48.70
63663;BME280;49815;51.618;0.336;2022-12-18T11:11:55;101088.85;;;2.48;48.30
63663;BME280;49815;51.618;0.336;2022-12-18T11:14:22;101076.73;;;2.38;48.31
63663;BME280;49815;51.618;0.336;2022-12-18T11:16:45;101057.73;;;2.27;48.59
63663;BME280;49815;51.618;0.336;2022-12-18T11:19:19;101048.92;;;2.37;48.58
63663;BME280;49815;51.618;0.336;2022-12-18T11:21:40;101042.99;;;1.56;49.51
63663;BME280;49815;51.618;0.336;2022-12-18T11:24:01;101026.60;;;2.48;49.07
63663;BME280;49815;51.618;0.336;2022-12-18T11:26:33;101029.98;;;2.11;48.71
63663;BME280;49815;51.618;0.336;2022-12-18T11:28:52;101024.26;;;2.22;49.27
63663;BME280;49815;51.618;0.336;2022-12-18T11:31:22;101031.16;;;2.62;48.73
63663;BME280;49815;51.618;0.336;2022-12-18T11:33:44;101037.58;;;2.21;48.59
63663;BME280;49815;51.618;0.336;2022-12-18T11:36:08;101029.12;;;2.35;48.36
63663;BME280;49815;51.618;0.336;2022-12-18T11:38:35;101027.40;;;2.37;48.36
63663;BME280;49815;51.618;0.336;2022-12-18T11:41:00;101024.77;;;2.75;48.52
63663;BME280;49815;51.618;0.336;2022-12-18T11:43:28;101004.78;;;2.74;47.84
63663;BME280;49815;51.618;0.336;2022-12-18T11:45:53;100985.88;;;2.89;47.62
63663;BME280;49815;51.618;0.336;2022-12-18T11:48:17;100979.39;;;2.50;48.90
63663;BME280;49815;51.618;0.336;2022-12-18T11:50:48;100968.40;;;2.14;49.09
63663;BME280;49815;51.618;0.336;2022-12-18T11:53:05;100957.59;;;1.94;49.42
63663;BME280;49815;51.618;0.336;2022-12-18T11:55:37;100958.36;;;2.05;49.19
63663;BME280;49815;51.618;0.336;2022-12-18T11:58:00;100956.90;;;1.70;50.21
63663;BME280;49815;51.618;0.336;2022-12-18T12:00:23;100952.75;;;2.09;50.00
63663;BME280;49815;51.618;0.336;2022-12-18T12:05:24;100974.56;;;1.93;49.63
63663;BME280;49815;51.618;0.336;2022-12-18T12:07:42;100975.49;;;2.39;49.52
63663;BME280;49815;51.618;0.336;2022-12-18T12:10:12;100972.89;;;2.42;49.32
63663;BME280;49815;51.618;0.336;2022-12-18T12:12:38;100968.44;;;1.76;50.14
63663;BME280;49815;51.618;0.336;2022-12-18T12:14:59;100955.88;;;1.54;50.88
63663;BME280;49815;51.618;0.336;2022-12-18T12:17:26;100955.42;;;1.93;50.91
63663;BME280;49815;51.618;0.336;2022-12-18T12:19:51;100951.43;;;2.07;50.41
63663;BME280;49815;51.618;0.336;2022-12-18T12:22:17;100941.98;;;2.18;50.48
63663;BME280;49815;51.618;0.336;2022-12-18T12:24:47;100939.73;;;1.75;51.70
63663;BME280;49815;51.618;0.336;2022-12-18T12:27:07;100927.27;;;2.07;51.49
63663;BME280;49815;51.618;0.336;2022-12-18T12:29:38;100927.50;;;2.13;50.94
63663;BME280;49815;51.618;0.336;2022-12-18T12:32:04;100931.26;;;2.13;50.46
63663;BME280;49815;51.618;0.336;2022-12-18T12:34:21;100919.09;;;2.34;50.32
63663;BME280;49815;51.618;0.336;2022-12-18T12:36:52;100923.09;;;2.00;50.91
63663;BME280;49815;51.618;0.336;2022-12-18T12:39:13;100913.64;;;2.42;49.83
63663;BME280;49815;51.618;0.336;2022-12-18T12:41:35;100915.08;;;3.15;49.91
63663;BME280;49815;51.618;0.336;2022-12-18T12:44:02;100912.03;;;2.51;50.61
63663;BME280;49815;51.618;0.336;2022-12-18T12:46:27;100904.84;;;1.98;51.31
63663;BME280;49815;51.618;0.336;2022-12-18T12:48:52;100902.37;;;2.36;51.72